sensor_id;sensor_type;location;lat;lon;timestamp;P1;durP1;ratioP1;P2;durP2;ratioP2
21754;SDS011;11039;50.028;19.938;2023-09-12T00:01:20;22.25;;;15.93;;
21754;SDS011;11039;50.028;19.938;2023-09-12T00:03:46;25.77;;;16.23;;
21754;SDS011;11039;50.028;19.938;2023-09-12T00:06:12;22.67;;;16.65;;
21754;SDS011;11039;50.028;19.938;2023-09-12T00:08:38;23.17;;;17.38;;
21754;SDS011;11039;50.028;19.938;2023-09-12T00:11:05;23.98;;;17.27;;
21754;SDS011;11039;50.028;19.938;2023-09-12T00:13:35;24.00;;;17.60;;
21754;SDS011;11039;50.028;19.938;2023-09-12T00:16:01;23.33;;;17.25;;
21754;SDS011;11039;50.028;19.938;2023-09-12T00:18:27;21.60;;;16.33;;
21754;SDS011;11039;50.028;19.938;2023-09-12T00:20:53;22.98;;;16.70;;
21754;SDS011;11039;50.028;19.938;2023-09-12T00:25:38;23.42;;;16.05;;
21754;SDS011;11039;50.028;19.938;2023-09-12T00:28:04;25.13;;;17.08;;
21754;SDS011;11039;50.028;19.938;2023-09-12T00:30:30;25.17;;;17.23;;
21754;SDS011;11039;50.028;19.938;2023-09-12T00:37:34;21.45;;;16.48;;
21754;SDS011;11039;50.028;19.938;2023-09-12T00:40:01;24.08;;;17.30;;
21754;SDS011;11039;50.028;19.938;2023-09-12T00:44:45;23.95;;;16.33;;
21754;SDS011;11039;50.028;19.938;2023-09-12T00:47:11;24.73;;;17.38;;
21754;SDS011;11039;50.028;19.938;2023-09-12T00:49:38;23.73;;;16.75;;
21754;SDS011;11039;50.028;19.938;2023-09-12T00:52:04;24.08;;;17.02;;
21754;SDS011;11039;50.028;19.938;2023-09-12T00:54:30;21.85;;;16.60;;
21754;SDS011;11039;50.028;19.938;2023-09-12T00:56:56;22.38;;;15.65;;
21754;SDS011;11039;50.028;19.938;2023-09-12T01:01:43;20.20;;;15.57;;
21754;SDS011;11039;50.028;19.938;2023-09-12T01:06:27;19.65;;;15.98;;
21754;SDS011;11039;50.028;19.938;2023-09-12T01:11:13;19.02;;;14.88;;
21754;SDS011;11039;50.028;19.938;2023-09-12T01:13:39;20.33;;;15.05;;
21754;SDS011;11039;50.028;19.938;2023-09-12T01:16:05;20.02;;;15.00;;
21754;SDS011;11039;50.028;19.938;2023-09-12T01:18:31;21.50;;;15.55;;
21754;SDS011;11039;50.028;19.938;2023-09-12T01:27:54;19.50;;;14.63;;
21754;SDS011;11039;50.028;19.938;2023-09-12T01:30:21;17.50;;;14.32;;
21754;SDS011;11039;50.028;19.938;2023-09-12T01:35:08;17.58;;;15.15;;
21754;SDS011;11039;50.028;19.938;2023-09-12T01:37:34;18.63;;;13.80;;
21754;SDS011;11039;50.028;19.938;2023-09-12T01:40:00;18.05;;;14.45;;
21754;SDS011;11039;50.028;19.938;2023-09-12T01:44:46;16.13;;;13.57;;
21754;SDS011;11039;50.028;19.938;2023-09-12T01:49:34;17.30;;;13.68;;
21754;SDS011;11039;50.028;19.938;2023-09-12T01:52:01;15.55;;;12.93;;
21754;SDS011;11039;50.028;19.938;2023-09-12T01:54:27;16.85;;;13.38;;
21754;SDS011;11039;50.028;19.938;2023-09-12T01:59:11;15.93;;;13.15;;
21754;SDS011;11039;50.028;19.938;2023-09-12T02:01:38;20.42;;;13.70;;
21754;SDS011;11039;50.028;19.938;2023-09-12T02:04:04;15.98;;;13.50;;
21754;SDS011;11039;50.028;19.938;2023-09-12T02:13:29;15.95;;;13.48;;
21754;SDS011;11039;50.028;19.938;2023-09-12T02:15:59;15.07;;;12.52;;
21754;SDS011;11039;50.028;19.938;2023-09-12T02:20:44;15.60;;;12.60;;
21754;SDS011;11039;50.028;19.938;2023-09-12T02:23:11;15.63;;;13.35;;
21754;SDS011;11039;50.028;19.938;2023-09-12T02:28:11;14.98;;;12.85;;
21754;SDS011;11039;50.028;19.938;2023-09-12T02:30:38;16.10;;;13.00;;
21754;SDS011;11039;50.028;19.938;2023-09-12T02:37:45;15.77;;;12.82;;
21754;SDS011;11039;50.028;19.938;2023-09-12T02:40:11;14.85;;;12.82;;
21754;SDS011;11039;50.028;19.938;2023-09-12T02:42:39;23.98;;;13.15;;
21754;SDS011;11039;50.028;19.938;2023-09-12T02:45:05;15.68;;;12.90;;
21754;SDS011;11039;50.028;19.938;2023-09-12T02:47:31;13.48;;;11.63;;
21754;SDS011;11039;50.028;19.938;2023-09-12T02:49:57;15.07;;;12.27;;
21754;SDS011;11039;50.028;19.938;2023-09-12T02:54:43;16.30;;;13.00;;
21754;SDS011;11039;50.028;19.938;2023-09-12T02:57:09;13.85;;;12.38;;
21754;SDS011;11039;50.028;19.938;2023-09-12T02:59:35;14.85;;;12.32;;
21754;SDS011;11039;50.028;19.938;2023-09-12T03:02:01;15.25;;;12.27;;
21754;SDS011;11039;50.028;19.938;2023-09-12T03:04:27;13.77;;;11.80;;
21754;SDS011;11039;50.028;19.938;2023-09-12T03:06:53;15.80;;;12.07;;
21754;SDS011;11039;50.028;19.938;2023-09-12T03:09:19;15.50;;;12.05;;
21754;SDS011;11039;50.028;19.938;2023-09-12T03:11:47;14.82;;;11.70;;
21754;SDS011;11039;50.028;19.938;2023-09-12T03:14:14;15.48;;;12.50;;
21754;SDS011;11039;50.028;19.938;2023-09-12T03:16:40;14.68;;;11.35;;
21754;SDS011;11039;50.028;19.938;2023-09-12T03:19:06;13.75;;;12.18;;
21754;SDS011;11039;50.028;19.938;2023-09-12T03:21:32;15.40;;;12.18;;
21754;SDS011;11039;50.028;19.938;2023-09-12T03:23:58;14.60;;;11.65;;
21754;SDS011;11039;50.028;19.938;2023-09-12T03:26:24;14.02;;;11.88;;
21754;SDS011;11039;50.028;19.938;2023-09-12T03:28:50;16.88;;;12.27;;
21754;SDS011;11039;50.028;19.938;2023-09-12T03:33:37;14.35;;;12.68;;
21754;SDS011;11039;50.028;19.938;2023-09-12T03:36:03;17.77;;;11.88;;
21754;SDS011;11039;50.028;19.938;2023-09-12T03:38:29;15.27;;;11.88;;
21754;SDS011;11039;50.028;19.938;2023-09-12T03:40:55;17.45;;;11.95;;
21754;SDS011;11039;50.028;19.938;2023-09-12T03:45:37;14.50;;;11.45;;
21754;SDS011;11039;50.028;19.938;2023-09-12T03:48:03;14.77;;;11.75;;
21754;SDS011;11039;50.028;19.938;2023-09-12T03:50:29;14.35;;;11.70;;
21754;SDS011;11039;50.028;19.938;2023-09-12T03:52:56;12.65;;;10.77;;
21754;SDS011;11039;50.028;19.938;2023-09-12T03:55:22;14.30;;;11.10;;
21754;SDS011;11039;50.028;19.938;2023-09-12T04:00:06;15.48;;;12.00;;
21754;SDS011;11039;50.028;19.938;2023-09-12T04:02:33;15.07;;;11.85;;
21754;SDS011;11039;50.028;19.938;2023-09-12T04:04:59;17.63;;;11.65;;
21754;SDS011;11039;50.028;19.938;2023-09-12T04:12:06;15.85;;;11.95;;
21754;SDS011;11039;50.028;19.938;2023-09-12T04:14:33;15.63;;;12.05;;
21754;SDS011;11039;50.028;19.938;2023-09-12T04:17:00;14.07;;;11.95;;
21754;SDS011;11039;50.028;19.938;2023-09-12T04:19:26;14.18;;;11.55;;
21754;SDS011;11039;50.028;19.938;2023-09-12T04:21:52;14.10;;;11.32;;
21754;SDS011;11039;50.028;19.938;2023-09-12T04:24:18;15.48;;;12.18;;
21754;SDS011;11039;50.028;19.938;2023-09-12T04:29:03;14.43;;;11.40;;
21754;SDS011;11039;50.028;19.938;2023-09-12T04:31:29;14.77;;;12.18;;
21754;SDS011;11039;50.028;19.938;2023-09-12T04:33:55;14.90;;;11.90;;
21754;SDS011;11039;50.028;19.938;2023-09-12T04:36:22;14.57;;;12.15;;
21754;SDS011;11039;50.028;19.938;2023-09-12T04:43:52;13.95;;;12.05;;
21754;SDS011;11039;50.028;19.938;2023-09-12T04:48:49;13.57;;;11.32;;
21754;SDS011;11039;50.028;19.938;2023-09-12T04:51:15;17.25;;;12.05;;
21754;SDS011;11039;50.028;19.938;2023-09-12T04:53:41;14.13;;;11.30;;
21754;SDS011;11039;50.028;19.938;2023-09-12T04:56:07;17.08;;;12.40;;
21754;SDS011;11039;50.028;19.938;2023-09-12T04:58:35;15.55;;;12.30;;
21754;SDS011;11039;50.028;19.938;2023-09-12T05:01:01;13.40;;;11.60;;
21754;SDS011;11039;50.028;19.938;2023-09-12T05:03:27;14.80;;;11.43;;
21754;SDS011;11039;50.028;19.938;2023-09-12T05:05:54;13.88;;;11.15;;
21754;SDS011;11039;50.028;19.938;2023-09-12T05:08:20;13.77;;;11.85;;
21754;SDS011;11039;50.028;19.938;2023-09-12T05:10:46;13.25;;;10.75;;
21754;SDS011;11039;50.028;19.938;2023-09-12T05:13:12;15.63;;;11.93;;
21754;SDS011;11039;50.028;19.938;2023-09-12T05:15:39;17.15;;;11.70;;
21754;SDS011;11039;50.028;19.938;2023-09-12T05:20:23;13.52;;;11.80;;
21754;SDS011;11039;50.028;19.938;2023-09-12T05:25:09;13.88;;;11.55;;
21754;SDS011;11039;50.028;19.938;2023-09-12T05:27:35;13.60;;;11.45;;
21754;SDS011;11039;50.028;19.938;2023-09-12T05:30:01;14.70;;;11.38;;
21754;SDS011;11039;50.028;19.938;2023-09-12T05:32:27;17.67;;;12.15;;
21754;SDS011;11039;50.028;19.938;2023-09-12T05:34:53;16.35;;;11.82;;
21754;SDS011;11039;50.028;19.938;2023-09-12T05:37:19;15.52;;;11.32;;
21754;SDS011;11039;50.028;19.938;2023-09-12T05:42:03;15.55;;;11.63;;
21754;SDS011;11039;50.028;19.938;2023-09-12T05:44:29;15.50;;;12.02;;
21754;SDS011;11039;50.028;19.938;2023-09-12T05:49:14;16.95;;;11.40;;
21754;SDS011;11039;50.028;19.938;2023-09-12T05:51:40;16.45;;;11.88;;
21754;SDS011;11039;50.028;19.938;2023-09-12T05:54:07;16.13;;;11.60;;
21754;SDS011;11039;50.028;19.938;2023-09-12T05:56:33;17.38;;;12.13;;
21754;SDS011;11039;50.028;19.938;2023-09-12T05:59:00;16.73;;;11.70;;
21754;SDS011;11039;50.028;19.938;2023-09-12T06:01:26;15.38;;;11.65;;
21754;SDS011;11039;50.028;19.938;2023-09-12T06:03:52;16.45;;;11.55;;
21754;SDS011;11039;50.028;19.938;2023-09-12T06:08:37;18.65;;;12.43;;
21754;SDS011;11039;50.028;19.938;2023-09-12T06:11:04;17.90;;;12.52;;
21754;SDS011;11039;50.028;19.938;2023-09-12T06:13:30;16.45;;;12.93;;
21754;SDS011;11039;50.028;19.938;2023-09-12T06:15:57;16.70;;;11.52;;
21754;SDS011;11039;50.028;19.938;2023-09-12T06:18:23;15.27;;;12.23;;
21754;SDS011;11039;50.028;19.938;2023-09-12T06:23:10;16.60;;;11.90;;
21754;SDS011;11039;50.028;19.938;2023-09-12T06:25:37;22.05;;;13.05;;
21754;SDS011;11039;50.028;19.938;2023-09-12T06:28:03;16.85;;;12.43;;
21754;SDS011;11039;50.028;19.938;2023-09-12T06:30:29;20.08;;;12.20;;
21754;SDS011;11039;50.028;19.938;2023-09-12T06:32:55;13.73;;;11.25;;
21754;SDS011;11039;50.028;19.938;2023-09-12T06:37:40;14.30;;;10.93;;
21754;SDS011;11039;50.028;19.938;2023-09-12T06:42:25;17.30;;;11.98;;
21754;SDS011;11039;50.028;19.938;2023-09-12T06:49:29;13.82;;;11.63;;
21754;SDS011;11039;50.028;19.938;2023-09-12T06:51:57;15.32;;;12.30;;
21754;SDS011;11039;50.028;19.938;2023-09-12T06:54:23;16.17;;;11.88;;
21754;SDS011;11039;50.028;19.938;2023-09-12T06:56:49;18.10;;;12.40;;
21754;SDS011;11039;50.028;19.938;2023-09-12T06:59:15;15.50;;;11.55;;
21754;SDS011;11039;50.028;19.938;2023-09-12T07:01:41;14.75;;;11.90;;
21754;SDS011;11039;50.028;19.938;2023-09-12T07:04:08;16.25;;;11.38;;
21754;SDS011;11039;50.028;19.938;2023-09-12T07:06:34;13.20;;;11.43;;
21754;SDS011;11039;50.028;19.938;2023-09-12T07:09:00;13.30;;;11.23;;
21754;SDS011;11039;50.028;19.938;2023-09-12T07:11:28;15.00;;;11.75;;
21754;SDS011;11039;50.028;19.938;2023-09-12T07:13:54;14.00;;;10.80;;
21754;SDS011;11039;50.028;19.938;2023-09-12T07:16:20;14.57;;;11.23;;
21754;SDS011;11039;50.028;19.938;2023-09-12T07:18:47;13.05;;;10.38;;
21754;SDS011;11039;50.028;19.938;2023-09-12T07:21:14;14.70;;;10.85;;
21754;SDS011;11039;50.028;19.938;2023-09-12T07:25:58;11.93;;;10.60;;
21754;SDS011;11039;50.028;19.938;2023-09-12T07:28:25;17.40;;;10.73;;
21754;SDS011;11039;50.028;19.938;2023-09-12T07:33:10;13.80;;;10.55;;
21754;SDS011;11039;50.028;19.938;2023-09-12T07:37:54;11.23;;;10.02;;
21754;SDS011;11039;50.028;19.938;2023-09-12T07:40:20;14.25;;;10.77;;
21754;SDS011;11039;50.028;19.938;2023-09-12T07:42:46;16.17;;;11.52;;
21754;SDS011;11039;50.028;19.938;2023-09-12T07:45:12;14.77;;;11.02;;
21754;SDS011;11039;50.028;19.938;2023-09-12T07:49:55;13.32;;;10.20;;
21754;SDS011;11039;50.028;19.938;2023-09-12T07:52:22;13.63;;;10.30;;
21754;SDS011;11039;50.028;19.938;2023-09-12T07:54:49;12.05;;;10.60;;
21754;SDS011;11039;50.028;19.938;2023-09-12T07:57:17;13.00;;;11.10;;
21754;SDS011;11039;50.028;19.938;2023-09-12T07:59:43;13.50;;;10.80;;
21754;SDS011;11039;50.028;19.938;2023-09-12T08:02:09;13.57;;;10.38;;
21754;SDS011;11039;50.028;19.938;2023-09-12T08:04:37;11.25;;;10.02;;
21754;SDS011;11039;50.028;19.938;2023-09-12T08:07:04;11.77;;;9.82;;
21754;SDS011;11039;50.028;19.938;2023-09-12T08:09:47;14.07;;;10.35;;
21754;SDS011;11039;50.028;19.938;2023-09-12T08:12:13;13.13;;;10.07;;
21754;SDS011;11039;50.028;19.938;2023-09-12T08:16:58;12.23;;;10.18;;
21754;SDS011;11039;50.028;19.938;2023-09-12T08:19:24;12.82;;;9.70;;
21754;SDS011;11039;50.028;19.938;2023-09-12T08:31:05;15.65;;;10.98;;
21754;SDS011;11039;50.028;19.938;2023-09-12T08:35:49;16.50;;;10.38;;
21754;SDS011;11039;50.028;19.938;2023-09-12T08:45:16;12.93;;;9.75;;
21754;SDS011;11039;50.028;19.938;2023-09-12T08:47:43;12.15;;;9.80;;
21754;SDS011;11039;50.028;19.938;2023-09-12T08:50:11;14.52;;;10.57;;
21754;SDS011;11039;50.028;19.938;2023-09-12T08:54:59;13.52;;;10.35;;
21754;SDS011;11039;50.028;19.938;2023-09-12T08:57:25;12.55;;;10.43;;
21754;SDS011;11039;50.028;19.938;2023-09-12T08:59:51;15.30;;;11.07;;
21754;SDS011;11039;50.028;19.938;2023-09-12T09:02:18;13.73;;;10.63;;
21754;SDS011;11039;50.028;19.938;2023-09-12T09:04:45;12.98;;;10.65;;
21754;SDS011;11039;50.028;19.938;2023-09-12T09:07:11;14.15;;;10.48;;
21754;SDS011;11039;50.028;19.938;2023-09-12T09:09:38;12.27;;;10.20;;
21754;SDS011;11039;50.028;19.938;2023-09-12T09:12:08;12.15;;;10.25;;
21754;SDS011;11039;50.028;19.938;2023-09-12T09:14:35;14.55;;;9.63;;
21754;SDS011;11039;50.028;19.938;2023-09-12T09:17:01;12.13;;;10.30;;
21754;SDS011;11039;50.028;19.938;2023-09-12T09:19:40;15.18;;;10.48;;
21754;SDS011;11039;50.028;19.938;2023-09-12T09:22:10;15.38;;;10.55;;
21754;SDS011;11039;50.028;19.938;2023-09-12T09:24:36;18.50;;;10.27;;
21754;SDS011;11039;50.028;19.938;2023-09-12T09:27:03;11.88;;;9.63;;
21754;SDS011;11039;50.028;19.938;2023-09-12T09:29:29;13.00;;;10.10;;
21754;SDS011;11039;50.028;19.938;2023-09-12T09:31:58;12.00;;;10.60;;
21754;SDS011;11039;50.028;19.938;2023-09-12T09:36:47;12.23;;;10.07;;
21754;SDS011;11039;50.028;19.938;2023-09-12T09:39:14;12.55;;;9.60;;
21754;SDS011;11039;50.028;19.938;2023-09-12T09:41:41;11.65;;;10.25;;
21754;SDS011;11039;50.028;19.938;2023-09-12T09:46:26;13.75;;;10.55;;
21754;SDS011;11039;50.028;19.938;2023-09-12T09:48:52;13.32;;;9.32;;
21754;SDS011;11039;50.028;19.938;2023-09-12T09:51:19;13.98;;;9.95;;
21754;SDS011;11039;50.028;19.938;2023-09-12T09:53:45;12.35;;;10.38;;
21754;SDS011;11039;50.028;19.938;2023-09-12T09:58:47;13.40;;;10.35;;
21754;SDS011;11039;50.028;19.938;2023-09-12T10:01:16;13.98;;;10.40;;
21754;SDS011;11039;50.028;19.938;2023-09-12T10:03:44;11.63;;;9.93;;
21754;SDS011;11039;50.028;19.938;2023-09-12T10:10:46;11.77;;;10.05;;
21754;SDS011;11039;50.028;19.938;2023-09-12T10:13:13;13.80;;;9.75;;
21754;SDS011;11039;50.028;19.938;2023-09-12T10:15:40;11.98;;;9.35;;
21754;SDS011;11039;50.028;19.938;2023-09-12T10:18:08;10.70;;;8.98;;
21754;SDS011;11039;50.028;19.938;2023-09-12T10:20:37;13.45;;;9.40;;
21754;SDS011;11039;50.028;19.938;2023-09-12T10:23:05;15.60;;;9.50;;
21754;SDS011;11039;50.028;19.938;2023-09-12T10:25:35;11.88;;;9.18;;
21754;SDS011;11039;50.028;19.938;2023-09-12T10:28:03;11.57;;;8.77;;
21754;SDS011;11039;50.028;19.938;2023-09-12T10:30:29;12.50;;;9.20;;
21754;SDS011;11039;50.028;19.938;2023-09-12T10:32:56;10.80;;;8.50;;
21754;SDS011;11039;50.028;19.938;2023-09-12T10:35:23;10.52;;;9.18;;
21754;SDS011;11039;50.028;19.938;2023-09-12T10:40:08;11.00;;;8.68;;
21754;SDS011;11039;50.028;19.938;2023-09-12T10:42:35;12.15;;;9.32;;
21754;SDS011;11039;50.028;19.938;2023-09-12T10:45:01;10.73;;;8.35;;
21754;SDS011;11039;50.028;19.938;2023-09-12T10:47:29;10.50;;;8.43;;
21754;SDS011;11039;50.028;19.938;2023-09-12T10:49:55;9.68;;;8.65;;
21754;SDS011;11039;50.028;19.938;2023-09-12T10:52:28;10.88;;;8.57;;
21754;SDS011;11039;50.028;19.938;2023-09-12T10:54:55;11.02;;;9.23;;
21754;SDS011;11039;50.028;19.938;2023-09-12T10:57:21;10.93;;;8.23;;
21754;SDS011;11039;50.028;19.938;2023-09-12T11:02:33;10.05;;;8.23;;
21754;SDS011;11039;50.028;19.938;2023-09-12T11:05:00;9.30;;;8.35;;
21754;SDS011;11039;50.028;19.938;2023-09-12T11:07:30;11.80;;;8.60;;
21754;SDS011;11039;50.028;19.938;2023-09-12T11:12:44;9.95;;;8.80;;
21754;SDS011;11039;50.028;19.938;2023-09-12T11:15:10;9.27;;;8.30;;
21754;SDS011;11039;50.028;19.938;2023-09-12T11:17:40;10.25;;;8.50;;
21754;SDS011;11039;50.028;19.938;2023-09-12T11:20:06;10.05;;;8.38;;
21754;SDS011;11039;50.028;19.938;2023-09-12T11:22:40;9.40;;;8.23;;
21754;SDS011;11039;50.028;19.938;2023-09-12T11:30:21;9.75;;;8.48;;
21754;SDS011;11039;50.028;19.938;2023-09-12T11:35:07;10.10;;;8.15;;
21754;SDS011;11039;50.028;19.938;2023-09-12T11:37:34;9.30;;;8.23;;
21754;SDS011;11039;50.028;19.938;2023-09-12T11:42:41;11.55;;;8.40;;
21754;SDS011;11039;50.028;19.938;2023-09-12T11:45:08;9.73;;;8.65;;
21754;SDS011;11039;50.028;19.938;2023-09-12T11:49:52;9.20;;;8.05;;
21754;SDS011;11039;50.028;19.938;2023-09-12T11:52:18;9.20;;;7.88;;
21754;SDS011;11039;50.028;19.938;2023-09-12T11:54:45;9.32;;;8.35;;
21754;SDS011;11039;50.028;19.938;2023-09-12T11:57:14;9.95;;;8.40;;
21754;SDS011;11039;50.028;19.938;2023-09-12T11:59:41;9.27;;;8.02;;
21754;SDS011;11039;50.028;19.938;2023-09-12T12:02:10;12.63;;;8.68;;
21754;SDS011;11039;50.028;19.938;2023-09-12T12:04:36;10.13;;;8.57;;
21754;SDS011;11039;50.028;19.938;2023-09-12T12:07:03;8.60;;;7.72;;
21754;SDS011;11039;50.028;19.938;2023-09-12T12:09:30;11.18;;;8.32;;
21754;SDS011;11039;50.028;19.938;2023-09-12T12:11:56;9.38;;;8.05;;
21754;SDS011;11039;50.028;19.938;2023-09-12T12:14:26;9.90;;;8.35;;
21754;SDS011;11039;50.028;19.938;2023-09-12T12:16:52;10.15;;;9.02;;
21754;SDS011;11039;50.028;19.938;2023-09-12T12:19:18;9.30;;;8.02;;
21754;SDS011;11039;50.028;19.938;2023-09-12T12:21:45;9.48;;;7.78;;
21754;SDS011;11039;50.028;19.938;2023-09-12T12:24:12;8.70;;;7.63;;
21754;SDS011;11039;50.028;19.938;2023-09-12T12:26:45;8.18;;;7.03;;
21754;SDS011;11039;50.028;19.938;2023-09-12T12:29:11;8.73;;;7.82;;
21754;SDS011;11039;50.028;19.938;2023-09-12T12:31:38;10.18;;;8.38;;
21754;SDS011;11039;50.028;19.938;2023-09-12T12:34:05;9.00;;;8.02;;
21754;SDS011;11039;50.028;19.938;2023-09-12T12:36:31;8.55;;;7.65;;
21754;SDS011;11039;50.028;19.938;2023-09-12T12:41:21;9.80;;;7.78;;
21754;SDS011;11039;50.028;19.938;2023-09-12T12:43:49;9.50;;;7.50;;
21754;SDS011;11039;50.028;19.938;2023-09-12T12:46:16;8.57;;;7.50;;
21754;SDS011;11039;50.028;19.938;2023-09-12T12:48:44;10.05;;;8.07;;
21754;SDS011;11039;50.028;19.938;2023-09-12T12:53:40;9.75;;;8.20;;
21754;SDS011;11039;50.028;19.938;2023-09-12T12:56:06;8.65;;;7.75;;
21754;SDS011;11039;50.028;19.938;2023-09-12T12:58:33;9.90;;;7.78;;
21754;SDS011;11039;50.028;19.938;2023-09-12T13:01:00;9.07;;;8.07;;
21754;SDS011;11039;50.028;19.938;2023-09-12T13:03:26;9.32;;;7.85;;
21754;SDS011;11039;50.028;19.938;2023-09-12T13:05:52;9.13;;;7.72;;
21754;SDS011;11039;50.028;19.938;2023-09-12T13:08:18;10.65;;;7.45;;
21754;SDS011;11039;50.028;19.938;2023-09-12T13:10:44;8.57;;;7.60;;
21754;SDS011;11039;50.028;19.938;2023-09-12T13:15:28;8.05;;;7.25;;
21754;SDS011;11039;50.028;19.938;2023-09-12T13:17:54;8.93;;;7.65;;
21754;SDS011;11039;50.028;19.938;2023-09-12T13:20:20;9.20;;;7.70;;
21754;SDS011;11039;50.028;19.938;2023-09-12T13:22:46;8.80;;;7.82;;
21754;SDS011;11039;50.028;19.938;2023-09-12T13:25:12;9.25;;;7.38;;
21754;SDS011;11039;50.028;19.938;2023-09-12T13:27:39;10.05;;;8.35;;
21754;SDS011;11039;50.028;19.938;2023-09-12T13:30:06;10.40;;;7.85;;
21754;SDS011;11039;50.028;19.938;2023-09-12T13:32:32;9.20;;;7.47;;
21754;SDS011;11039;50.028;19.938;2023-09-12T13:34:58;8.68;;;7.43;;
21754;SDS011;11039;50.028;19.938;2023-09-12T13:37:24;12.45;;;8.48;;
21754;SDS011;11039;50.028;19.938;2023-09-12T13:39:52;9.52;;;7.97;;
21754;SDS011;11039;50.028;19.938;2023-09-12T13:44:50;9.30;;;8.23;;
21754;SDS011;11039;50.028;19.938;2023-09-12T13:47:16;10.73;;;7.93;;
21754;SDS011;11039;50.028;19.938;2023-09-12T13:49:46;10.13;;;7.97;;
21754;SDS011;11039;50.028;19.938;2023-09-12T13:52:12;11.00;;;8.23;;
21754;SDS011;11039;50.028;19.938;2023-09-12T13:54:40;8.65;;;7.72;;
21754;SDS011;11039;50.028;19.938;2023-09-12T13:57:06;9.63;;;7.88;;
21754;SDS011;11039;50.028;19.938;2023-09-12T13:59:32;8.40;;;7.50;;
21754;SDS011;11039;50.028;19.938;2023-09-12T14:01:58;10.38;;;8.23;;
21754;SDS011;11039;50.028;19.938;2023-09-12T14:06:44;9.63;;;8.00;;
21754;SDS011;11039;50.028;19.938;2023-09-12T14:09:10;10.95;;;8.50;;
21754;SDS011;11039;50.028;19.938;2023-09-12T14:11:36;8.63;;;7.70;;
21754;SDS011;11039;50.028;19.938;2023-09-12T14:14:03;8.90;;;7.95;;
21754;SDS011;11039;50.028;19.938;2023-09-12T14:16:29;9.30;;;8.13;;
21754;SDS011;11039;50.028;19.938;2023-09-12T14:21:14;11.38;;;8.43;;
21754;SDS011;11039;50.028;19.938;2023-09-12T14:23:40;11.15;;;9.07;;
21754;SDS011;11039;50.028;19.938;2023-09-12T14:26:06;9.65;;;8.45;;
21754;SDS011;11039;50.028;19.938;2023-09-12T14:28:32;10.10;;;8.90;;
21754;SDS011;11039;50.028;19.938;2023-09-12T14:30:59;10.75;;;8.88;;
21754;SDS011;11039;50.028;19.938;2023-09-12T14:33:25;9.00;;;7.60;;
21754;SDS011;11039;50.028;19.938;2023-09-12T14:35:51;9.60;;;8.23;;
21754;SDS011;11039;50.028;19.938;2023-09-12T14:38:18;9.00;;;8.10;;
21754;SDS011;11039;50.028;19.938;2023-09-12T14:43:02;11.30;;;8.85;;
21754;SDS011;11039;50.028;19.938;2023-09-12T14:45:28;9.95;;;8.95;;
21754;SDS011;11039;50.028;19.938;2023-09-12T14:47:55;9.55;;;8.43;;
21754;SDS011;11039;50.028;19.938;2023-09-12T14:50:22;11.40;;;9.02;;
21754;SDS011;11039;50.028;19.938;2023-09-12T14:52:49;11.65;;;8.93;;
21754;SDS011;11039;50.028;19.938;2023-09-12T14:57:34;9.68;;;8.63;;
21754;SDS011;11039;50.028;19.938;2023-09-12T15:00:00;11.10;;;8.45;;
21754;SDS011;11039;50.028;19.938;2023-09-12T15:04:44;13.38;;;8.57;;
21754;SDS011;11039;50.028;19.938;2023-09-12T15:07:10;10.35;;;8.52;;
21754;SDS011;11039;50.028;19.938;2023-09-12T15:09:36;10.63;;;9.10;;
21754;SDS011;11039;50.028;19.938;2023-09-12T15:12:02;9.68;;;8.65;;
21754;SDS011;11039;50.028;19.938;2023-09-12T15:14:28;24.33;;;9.10;;
21754;SDS011;11039;50.028;19.938;2023-09-12T15:16:55;9.63;;;8.13;;
21754;SDS011;11039;50.028;19.938;2023-09-12T15:19:22;11.00;;;9.07;;
21754;SDS011;11039;50.028;19.938;2023-09-12T15:21:48;9.05;;;7.72;;
21754;SDS011;11039;50.028;19.938;2023-09-12T15:24:14;11.00;;;8.73;;
21754;SDS011;11039;50.028;19.938;2023-09-12T15:26:40;9.88;;;8.40;;
21754;SDS011;11039;50.028;19.938;2023-09-12T15:29:06;11.93;;;8.20;;
21754;SDS011;11039;50.028;19.938;2023-09-12T15:31:33;15.25;;;9.48;;
21754;SDS011;11039;50.028;19.938;2023-09-12T15:33:59;10.98;;;8.25;;
21754;SDS011;11039;50.028;19.938;2023-09-12T15:36:25;11.48;;;9.27;;
21754;SDS011;11039;50.028;19.938;2023-09-12T15:38:51;10.73;;;8.70;;
21754;SDS011;11039;50.028;19.938;2023-09-12T15:41:17;11.55;;;9.15;;
21754;SDS011;11039;50.028;19.938;2023-09-12T15:43:43;12.73;;;8.63;;
21754;SDS011;11039;50.028;19.938;2023-09-12T15:46:10;11.93;;;8.73;;
21754;SDS011;11039;50.028;19.938;2023-09-12T15:48:36;9.70;;;8.65;;
21754;SDS011;11039;50.028;19.938;2023-09-12T15:51:02;9.70;;;8.48;;
21754;SDS011;11039;50.028;19.938;2023-09-12T15:53:29;10.57;;;8.82;;
21754;SDS011;11039;50.028;19.938;2023-09-12T15:55:55;9.82;;;8.82;;
21754;SDS011;11039;50.028;19.938;2023-09-12T15:58:21;9.65;;;8.57;;
21754;SDS011;11039;50.028;19.938;2023-09-12T16:03:06;9.77;;;8.10;;
21754;SDS011;11039;50.028;19.938;2023-09-12T16:05:32;10.57;;;8.50;;
21754;SDS011;11039;50.028;19.938;2023-09-12T16:07:58;9.75;;;8.75;;
21754;SDS011;11039;50.028;19.938;2023-09-12T16:10:24;10.32;;;8.80;;
21754;SDS011;11039;50.028;19.938;2023-09-12T16:12:50;10.07;;;8.95;;
21754;SDS011;11039;50.028;19.938;2023-09-12T16:15:16;10.80;;;8.38;;
21754;SDS011;11039;50.028;19.938;2023-09-12T16:17:42;11.93;;;8.15;;
21754;SDS011;11039;50.028;19.938;2023-09-12T16:20:10;9.20;;;8.07;;
21754;SDS011;11039;50.028;19.938;2023-09-12T16:24:57;11.15;;;9.27;;
21754;SDS011;11039;50.028;19.938;2023-09-12T16:27:23;9.68;;;8.65;;
21754;SDS011;11039;50.028;19.938;2023-09-12T16:29:49;11.07;;;8.73;;
21754;SDS011;11039;50.028;19.938;2023-09-12T16:32:15;9.32;;;8.27;;
21754;SDS011;11039;50.028;19.938;2023-09-12T16:34:41;9.65;;;8.57;;
21754;SDS011;11039;50.028;19.938;2023-09-12T16:37:07;9.35;;;8.35;;
21754;SDS011;11039;50.028;19.938;2023-09-12T16:44:11;10.82;;;8.70;;
21754;SDS011;11039;50.028;19.938;2023-09-12T16:46:38;10.57;;;8.57;;
21754;SDS011;11039;50.028;19.938;2023-09-12T16:49:04;10.00;;;8.88;;
21754;SDS011;11039;50.028;19.938;2023-09-12T16:51:30;13.32;;;9.15;;
21754;SDS011;11039;50.028;19.938;2023-09-12T16:53:56;14.15;;;9.70;;
21754;SDS011;11039;50.028;19.938;2023-09-12T16:56:22;9.73;;;8.60;;
21754;SDS011;11039;50.028;19.938;2023-09-12T16:58:49;10.75;;;9.05;;
21754;SDS011;11039;50.028;19.938;2023-09-12T17:05:52;12.43;;;9.20;;
21754;SDS011;11039;50.028;19.938;2023-09-12T17:08:18;12.40;;;9.07;;
21754;SDS011;11039;50.028;19.938;2023-09-12T17:10:44;13.50;;;9.10;;
21754;SDS011;11039;50.028;19.938;2023-09-12T17:13:10;11.88;;;8.98;;
21754;SDS011;11039;50.028;19.938;2023-09-12T17:15:36;11.55;;;8.63;;
21754;SDS011;11039;50.028;19.938;2023-09-12T17:20:21;11.75;;;8.68;;
21754;SDS011;11039;50.028;19.938;2023-09-12T17:22:47;14.10;;;9.15;;
21754;SDS011;11039;50.028;19.938;2023-09-12T17:25:14;11.82;;;9.00;;
21754;SDS011;11039;50.028;19.938;2023-09-12T17:27:40;11.98;;;9.15;;
21754;SDS011;11039;50.028;19.938;2023-09-12T17:30:09;12.82;;;9.00;;
21754;SDS011;11039;50.028;19.938;2023-09-12T17:32:35;13.25;;;9.48;;